createdAt,value
2018-01-27T00:00:28.467Z,34.83
2018-01-27T00:02:56.876Z,37.00
2018-01-27T00:05:25.367Z,36.77
2018-01-27T00:07:53.754Z,34.37
2018-01-27T00:10:22.208Z,33.43
2018-01-27T00:12:50.757Z,33.10
2018-01-27T00:15:19.325Z,34.97
2018-01-27T00:17:47.869Z,32.70
2018-01-27T00:20:16.556Z,33.40
2018-01-27T00:22:52.815Z,33.27
2018-01-27T00:25:21.317Z,33.07
2018-01-27T00:27:49.789Z,33.10
2018-01-27T00:30:18.344Z,32.63
2018-01-27T00:32:46.847Z,31.23
2018-01-27T00:35:15.340Z,31.63
2018-01-27T00:37:43.908Z,32.83
2018-01-27T00:40:12.468Z,36.07
2018-01-27T00:42:41.055Z,36.70
2018-01-27T00:45:09.645Z,37.27
2018-01-27T00:47:38.108Z,32.40
2018-01-27T00:50:06.703Z,35.20
2018-01-27T00:52:35.110Z,31.63
2018-01-27T00:55:03.579Z,31.03
2018-01-27T00:57:32.175Z,30.03
2018-01-27T01:00:00.659Z,33.20
2018-01-27T01:02:30.076Z,34.83
2018-01-27T01:04:58.596Z,32.77
2018-01-27T01:07:27.101Z,32.00
2018-01-27T01:09:55.606Z,29.10
2018-01-27T01:12:24.190Z,34.83
2018-01-27T01:14:52.708Z,34.37
2018-01-27T01:17:21.970Z,32.40
2018-01-27T01:19:50.499Z,37.03
2018-01-27T01:22:19.000Z,36.30
2018-01-27T01:24:47.427Z,34.80
2018-01-27T01:27:15.973Z,38.80
2018-01-27T01:29:44.454Z,40.57
2018-01-27T01:32:12.958Z,41.60
2018-01-27T01:34:41.487Z,43.90
2018-01-27T01:37:09.894Z,42.93
2018-01-27T01:39:38.462Z,43.70
2018-01-27T01:42:06.909Z,43.13
2018-01-27T01:44:35.325Z,43.83
2018-01-27T01:47:03.842Z,46.67
2018-01-27T01:49:32.383Z,43.93
2018-01-27T01:52:00.808Z,42.70
2018-01-27T01:54:29.240Z,46.10
2018-01-27T01:56:57.743Z,43.60
2018-01-27T01:59:26.275Z,44.97
2018-01-27T02:01:54.931Z,48.00
2018-01-27T02:04:23.391Z,48.20
2018-01-27T02:06:51.864Z,48.33
2018-01-27T02:09:20.355Z,50.63
2018-01-27T02:11:48.786Z,43.77
2018-01-27T02:14:17.419Z,48.50
2018-01-27T02:16:45.918Z,45.80
2018-01-27T02:19:14.380Z,46.50
2018-01-27T02:21:42.803Z,42.23
2018-01-27T02:24:11.360Z,44.90
2018-01-27T02:26:39.841Z,43.57
2018-01-27T02:29:08.459Z,46.43
2018-01-27T02:31:36.891Z,43.93
2018-01-27T02:34:05.335Z,41.93
2018-01-27T02:36:34.553Z,41.77
2018-01-27T02:39:03.001Z,48.80
2018-01-27T02:41:31.520Z,47.87
2018-01-27T02:44:00.070Z,44.30
2018-01-27T02:46:29.321Z,44.60
2018-01-27T02:48:57.776Z,43.23
2018-01-27T02:51:26.242Z,48.07
2018-01-27T02:53:55.357Z,45.87
2018-01-27T02:56:23.802Z,44.07
2018-01-27T02:58:52.973Z,43.73
2018-01-27T03:01:21.368Z,44.37
2018-01-27T03:03:49.812Z,44.90
2018-01-27T03:06:18.181Z,46.97
2018-01-27T03:08:46.827Z,47.87
2018-01-27T03:11:15.965Z,45.37
2018-01-27T03:13:44.406Z,45.43
2018-01-27T03:16:12.828Z,47.20
2018-01-27T03:18:41.411Z,46.00
2018-01-27T03:21:10.041Z,47.07
2018-01-27T03:23:38.461Z,44.47
2018-01-27T03:26:07.058Z,46.53
2018-01-27T03:28:35.540Z,45.40
2018-01-27T03:31:03.975Z,40.57
2018-01-27T03:33:32.559Z,43.77
2018-01-27T03:36:01.785Z,47.13
2018-01-27T03:38:30.279Z,41.77
2018-01-27T03:40:58.748Z,43.60
2018-01-27T03:43:27.247Z,47.43
2018-01-27T03:45:55.790Z,42.27
2018-01-27T03:48:25.121Z,43.80
2018-01-27T03:50:53.570Z,43.37
2018-01-27T03:53:22.227Z,47.47
2018-01-27T03:55:50.780Z,45.33
2018-01-27T03:58:19.368Z,44.17
2018-01-27T04:00:47.891Z,45.53
2018-01-27T04:03:16.637Z,49.00
2018-01-27T04:05:45.106Z,45.77
2018-01-27T04:08:13.607Z,42.40
2018-01-27T04:10:42.385Z,45.90
2018-01-27T04:13:10.997Z,42.40
2018-01-27T04:15:39.535Z,46.73
2018-01-27T04:18:08.235Z,44.30
2018-01-27T04:20:36.828Z,46.97
2018-01-27T04:23:05.441Z,46.77
2018-01-27T04:25:33.884Z,46.43
2018-01-27T04:28:02.370Z,43.73
2018-01-27T04:30:30.856Z,44.70
2018-01-27T04:33:00.248Z,45.33
2018-01-27T04:35:28.871Z,41.80
2018-01-27T04:37:57.333Z,40.87
2018-01-27T04:40:25.999Z,40.00
2018-01-27T04:42:54.683Z,41.67
2018-01-27T04:45:23.196Z,42.50
2018-01-27T04:47:51.874Z,45.80
2018-01-27T04:50:20.430Z,45.10
2018-01-27T04:52:49.013Z,46.43
2018-01-27T04:55:17.527Z,46.00
2018-01-27T04:57:46.179Z,43.50
2018-01-27T05:00:14.598Z,42.77
2018-01-27T05:02:43.040Z,45.83
2018-01-27T05:05:11.552Z,44.30
2018-01-27T05:07:39.980Z,45.17
2018-01-27T05:10:09.310Z,43.97
2018-01-27T05:12:37.917Z,42.77
2018-01-27T05:15:06.545Z,47.97
2018-01-27T05:17:35.063Z,42.73
2018-01-27T05:20:03.820Z,43.10
2018-01-27T05:22:32.289Z,46.13
2018-01-27T05:25:00.696Z,45.83
2018-01-27T05:27:29.132Z,44.93
2018-01-27T05:29:57.603Z,47.00
2018-01-27T05:32:26.163Z,42.67
2018-01-27T05:34:54.770Z,41.00
2018-01-27T05:37:23.306Z,41.07
2018-01-27T05:39:51.874Z,40.33
2018-01-27T05:42:21.411Z,40.63
2018-01-27T05:44:49.960Z,39.70
2018-01-27T05:47:19.197Z,39.37
2018-01-27T05:49:47.647Z,42.00
2018-01-27T05:52:17.010Z,42.57
2018-01-27T05:54:45.508Z,41.53
2018-01-27T05:57:14.000Z,40.87
2018-01-27T05:59:43.263Z,39.70
2018-01-27T06:02:11.690Z,41.63
2018-01-27T06:04:40.989Z,44.37
2018-01-27T06:07:10.274Z,39.77
2018-01-27T06:09:39.573Z,42.50
2018-01-27T06:12:08.105Z,40.87
2018-01-27T06:14:36.555Z,41.83
2018-01-27T06:17:05.926Z,41.67
2018-01-27T06:19:34.414Z,38.20
2018-01-27T06:22:02.998Z,43.97
2018-01-27T06:24:32.265Z,41.73
2018-01-27T06:27:00.776Z,38.87
2018-01-27T06:29:30.045Z,38.93
2018-01-27T06:31:58.554Z,40.37
2018-01-27T06:34:27.137Z,36.17
2018-01-27T06:36:55.638Z,39.43
2018-01-27T06:39:24.852Z,40.20
2018-01-27T06:41:53.301Z,36.60
2018-01-27T06:44:21.712Z,43.63
2018-01-27T06:46:50.186Z,39.07
2018-01-27T06:49:19.384Z,37.40
2018-01-27T06:51:47.820Z,38.90
2018-01-27T06:54:16.376Z,40.43
2018-01-27T06:56:45.001Z,37.43
2018-01-27T06:59:13.514Z,39.57
2018-01-27T07:01:42.105Z,37.00
2018-01-27T07:04:10.639Z,37.77
2018-01-27T07:06:39.351Z,38.50
2018-01-27T07:09:08.604Z,40.20
2018-01-27T07:11:37.144Z,41.50
2018-01-27T07:14:05.628Z,40.20
2018-01-27T07:16:34.782Z,41.97
2018-01-27T07:19:03.544Z,40.17
2018-01-27T07:21:31.922Z,40.27
2018-01-27T07:24:00.352Z,42.00
2018-01-27T07:26:29.503Z,38.03
2018-01-27T07:28:57.850Z,37.70
2018-01-27T07:31:27.773Z,37.07
2018-01-27T07:33:56.211Z,38.60
2018-01-27T07:36:24.685Z,37.73
2018-01-27T07:38:53.100Z,37.77
2018-01-27T07:41:22.275Z,32.40
2018-01-27T07:43:50.640Z,37.30
2018-01-27T07:46:19.008Z,32.43
2018-01-27T07:48:47.479Z,30.80
2018-01-27T07:51:15.922Z,32.00
2018-01-27T07:53:44.288Z,31.37
2018-01-27T07:56:13.446Z,31.70
2018-01-27T07:58:41.873Z,31.27
2018-01-27T08:01:10.266Z,32.17
2018-01-27T08:03:41.214Z,33.17
2018-01-27T08:06:09.621Z,29.70
2018-01-27T08:08:39.508Z,29.80
2018-01-27T08:11:08.072Z,33.73
2018-01-27T08:13:36.644Z,29.70
2018-01-27T08:16:05.952Z,30.27
2018-01-27T08:18:35.349Z,30.80
2018-01-27T08:21:04.845Z,32.17
2018-01-27T08:23:34.189Z,31.53
2018-01-27T08:26:03.618Z,34.00
2018-01-27T08:28:32.166Z,32.87
2018-01-27T08:31:00.577Z,31.33
2018-01-27T08:33:29.049Z,42.27
2018-01-27T08:35:57.528Z,40.20
2018-01-27T08:38:26.250Z,40.90
2018-01-27T08:40:55.660Z,39.40
2018-01-27T08:43:25.059Z,39.30
2018-01-27T08:45:54.401Z,39.27
2018-01-27T08:48:28.272Z,47.93
2018-01-27T08:50:57.808Z,42.17
2018-01-27T08:53:26.596Z,41.93
2018-01-27T08:55:55.001Z,38.53
2018-01-27T08:58:23.410Z,33.57
2018-01-27T09:00:52.657Z,34.00
2018-01-27T09:03:21.232Z,35.00
2018-01-27T09:05:49.809Z,33.40
2018-01-27T09:08:19.142Z,36.03
2018-01-27T09:10:48.188Z,38.07
2018-01-27T09:13:16.767Z,37.93
2018-01-27T09:15:45.600Z,40.20
2018-01-27T09:18:14.079Z,39.07
2018-01-27T09:20:42.483Z,39.80
2018-01-27T09:23:10.942Z,35.23
2018-01-27T09:25:39.524Z,39.03
2018-01-27T09:28:08.145Z,37.97
2018-01-27T09:30:36.619Z,37.97
2018-01-27T09:33:05.205Z,37.43
2018-01-27T09:35:33.690Z,39.00
2018-01-27T09:38:02.188Z,38.67
2018-01-27T09:40:30.776Z,39.43
2018-01-27T09:42:59.211Z,40.10
2018-01-27T09:45:27.644Z,40.40
2018-01-27T09:47:56.918Z,43.30
2018-01-27T09:50:26.577Z,40.90
2018-01-27T09:52:55.207Z,43.17
2018-01-27T09:55:23.715Z,44.30
2018-01-27T09:57:52.962Z,39.73
2018-01-27T10:00:21.434Z,44.03
2018-01-27T10:02:49.872Z,44.43
2018-01-27T10:05:18.475Z,44.75
2018-01-27T10:07:46.884Z,43.13
2018-01-27T10:10:15.305Z,42.20
2018-01-27T10:12:43.729Z,47.40
2018-01-27T10:15:12.227Z,41.43
2018-01-27T10:17:40.679Z,48.17
2018-01-27T10:20:09.229Z,41.90
2018-01-27T10:22:37.713Z,45.30
2018-01-27T10:25:06.076Z,46.90
2018-01-27T10:28:01.644Z,44.83
2018-01-27T10:30:30.062Z,40.87
2018-01-27T10:32:58.420Z,42.93
2018-01-27T10:35:26.796Z,44.83
2018-01-27T10:37:55.145Z,41.70
2018-01-27T10:40:24.268Z,42.73
2018-01-27T10:42:52.651Z,42.23
2018-01-27T10:45:21.008Z,40.80
2018-01-27T10:47:50.180Z,37.97
2018-01-27T10:50:18.581Z,38.33
2018-01-27T10:52:47.713Z,39.50
2018-01-27T10:55:16.309Z,38.57
2018-01-27T10:57:44.799Z,37.60
2018-01-27T11:00:13.243Z,36.20
2018-01-27T11:02:41.801Z,38.27
2018-01-27T11:05:10.249Z,35.40
2018-01-27T11:07:38.785Z,37.07
2018-01-27T11:10:07.357Z,31.90
2018-01-27T11:12:35.765Z,34.60
2018-01-27T11:15:04.170Z,30.50
2018-01-27T11:17:32.617Z,32.43
2018-01-27T11:20:01.105Z,30.80
2018-01-27T11:22:29.577Z,28.97
2018-01-27T11:24:58.120Z,28.97
2018-01-27T11:27:26.657Z,26.50
2018-01-27T11:29:55.164Z,24.00
2018-01-27T11:32:23.568Z,25.00
2018-01-27T11:34:52.792Z,20.50
2018-01-27T11:37:21.213Z,24.10
2018-01-27T11:39:49.690Z,24.93
2018-01-27T11:42:18.173Z,29.03
2018-01-27T11:44:46.711Z,24.80
2018-01-27T11:47:15.164Z,23.10
2018-01-27T11:49:43.633Z,19.90
2018-01-27T11:52:12.016Z,17.97
2018-01-27T11:54:40.491Z,19.17
2018-01-27T11:57:09.000Z,19.70
2018-01-27T11:59:38.204Z,17.60
2018-01-27T12:02:07.416Z,18.00
2018-01-27T12:04:35.799Z,16.70
2018-01-27T12:07:04.223Z,18.03
2018-01-27T12:09:32.696Z,16.20
2018-01-27T12:12:01.071Z,14.93
2018-01-27T12:14:29.434Z,14.23
2018-01-27T12:16:57.824Z,14.00
2018-01-27T12:19:26.257Z,12.90
2018-01-27T12:21:55.393Z,13.63
2018-01-27T12:24:23.785Z,14.00
2018-01-27T12:26:52.200Z,13.90
2018-01-27T12:29:21.403Z,14.13
2018-01-27T12:31:50.651Z,14.27
2018-01-27T12:34:19.028Z,14.67
2018-01-27T12:36:47.729Z,16.90
2018-01-27T12:39:16.271Z,22.13
2018-01-27T12:41:44.775Z,17.43
2018-01-27T12:44:13.312Z,17.40
2018-01-27T12:46:42.469Z,13.20
2018-01-27T12:49:10.917Z,13.80
2018-01-27T12:51:39.354Z,14.20
2018-01-27T12:54:07.897Z,14.60
2018-01-27T12:56:36.612Z,14.33
2018-01-27T12:59:05.025Z,17.07
2018-01-27T13:01:33.545Z,13.70
2018-01-27T13:04:02.026Z,14.03
2018-01-27T13:06:30.530Z,12.90
2018-01-27T13:08:59.560Z,14.07
2018-01-27T13:11:29.258Z,14.70
2018-01-27T13:13:57.800Z,12.83
2018-01-27T13:16:26.264Z,16.37
2018-01-27T13:18:54.864Z,14.67
2018-01-27T13:21:23.359Z,14.30
2018-01-27T13:23:51.823Z,14.00
2018-01-27T13:26:20.396Z,13.77
2018-01-27T13:28:48.838Z,14.40
2018-01-27T13:31:17.265Z,16.53
2018-01-27T13:33:45.746Z,15.17
2018-01-27T13:36:14.182Z,16.83
2018-01-27T13:38:43.544Z,15.00
2018-01-27T13:41:12.745Z,17.43
2018-01-27T13:43:41.258Z,16.00
2018-01-27T13:46:10.531Z,16.37
2018-01-27T13:48:38.999Z,16.37
2018-01-27T13:51:07.462Z,14.07
2018-01-27T13:53:35.948Z,14.57
2018-01-27T13:56:05.045Z,14.67
2018-01-27T13:58:33.460Z,14.33
2018-01-27T14:01:02.018Z,14.60
2018-01-27T14:03:30.454Z,13.87
2018-01-27T14:05:59.752Z,17.80
2018-01-27T14:08:28.916Z,13.40
2018-01-27T14:10:57.439Z,15.67
2018-01-27T14:13:25.972Z,16.93
2018-01-27T14:15:54.510Z,16.07
2018-01-27T14:18:22.948Z,18.13
2018-01-27T14:20:51.441Z,17.53
2018-01-27T14:23:19.859Z,16.47
2018-01-27T14:25:48.355Z,19.13
2018-01-27T14:28:16.772Z,16.93
2018-01-27T14:30:45.271Z,16.67
2018-01-27T14:33:14.506Z,16.77
2018-01-27T14:35:42.937Z,15.70
2018-01-27T14:38:11.348Z,16.47
2018-01-27T14:40:40.512Z,15.93
2018-01-27T14:43:08.955Z,16.57
2018-01-27T14:45:37.427Z,15.63
2018-01-27T14:48:06.096Z,14.97
2018-01-27T14:50:34.469Z,15.10
2018-01-27T14:53:03.663Z,16.30
2018-01-27T14:55:32.966Z,14.60
2018-01-27T14:58:01.402Z,15.30
2018-01-27T15:00:30.140Z,17.50
2018-01-27T15:02:58.681Z,15.20
2018-01-27T15:05:27.245Z,17.90
2018-01-27T15:07:55.754Z,18.20
2018-01-27T15:10:24.294Z,17.07
2018-01-27T15:12:52.859Z,18.10
2018-01-27T15:15:21.438Z,17.07
2018-01-27T15:17:49.931Z,17.90
2018-01-27T15:20:18.391Z,17.77
2018-01-27T15:22:48.608Z,18.60
2018-01-27T15:25:17.891Z,18.03
2018-01-27T15:27:47.118Z,16.83
2018-01-27T15:30:15.633Z,18.70
2018-01-27T15:32:44.085Z,17.33
2018-01-27T15:35:13.309Z,19.13
2018-01-27T15:37:41.729Z,19.93
2018-01-27T15:40:10.165Z,18.60
2018-01-27T15:42:38.577Z,19.70
2018-01-27T15:45:07.212Z,18.27
2018-01-27T15:47:35.621Z,23.70
2018-01-27T15:50:04.154Z,23.13
2018-01-27T15:52:32.668Z,23.37
2018-01-27T15:55:01.131Z,21.83
2018-01-27T15:57:29.516Z,23.70
2018-01-27T15:59:57.968Z,21.57
2018-01-27T16:02:27.101Z,24.10
2018-01-27T16:04:55.585Z,25.07
2018-01-27T16:07:24.071Z,24.10
2018-01-27T16:09:52.747Z,26.03
2018-01-27T16:12:21.196Z,28.37
2018-01-27T16:14:50.350Z,26.73
2018-01-27T16:17:19.076Z,28.87
2018-01-27T16:19:48.209Z,27.53
2018-01-27T16:22:16.576Z,26.33
2018-01-27T16:24:45.054Z,25.90
2018-01-27T16:27:13.538Z,25.40
2018-01-27T16:29:41.995Z,25.43
2018-01-27T16:32:11.203Z,32.60
2018-01-27T16:34:39.674Z,27.90
2018-01-27T16:37:08.938Z,24.80
2018-01-27T16:39:37.336Z,27.33
2018-01-27T16:42:05.857Z,24.20
2018-01-27T16:44:34.286Z,24.60
2018-01-27T16:47:02.676Z,24.03
2018-01-27T16:49:31.166Z,26.77
2018-01-27T16:51:59.621Z,40.70
2018-01-27T16:54:28.126Z,31.07
2018-01-27T16:56:56.576Z,30.83
2018-01-27T16:59:24.969Z,25.60
2018-01-27T17:01:53.541Z,26.70
2018-01-27T17:04:21.985Z,25.80
2018-01-27T17:06:50.458Z,23.37
2018-01-27T17:09:19.664Z,24.47
2018-01-27T17:11:48.081Z,35.93
2018-01-27T17:14:16.532Z,23.87
2018-01-27T17:16:44.942Z,23.70
2018-01-27T17:19:13.346Z,23.90
2018-01-27T17:21:41.751Z,25.93
2018-01-27T17:24:10.224Z,25.07
2018-01-27T17:26:39.363Z,27.30
2018-01-27T17:29:07.753Z,25.07
2018-01-27T17:31:36.187Z,24.80
2018-01-27T17:34:05.395Z,24.53
2018-01-27T17:36:33.861Z,26.90
2018-01-27T17:39:03.072Z,27.37
2018-01-27T17:41:31.450Z,27.80
2018-01-27T17:43:59.837Z,26.03
2018-01-27T17:46:28.275Z,26.90
2018-01-27T17:48:56.748Z,26.87
2018-01-27T17:51:25.193Z,26.03
2018-01-27T17:53:53.581Z,28.60
2018-01-27T17:56:21.968Z,24.73
2018-01-27T17:58:50.409Z,26.87
2018-01-27T18:01:18.866Z,27.20
2018-01-27T18:03:47.249Z,26.40
2018-01-27T18:06:15.858Z,27.33
2018-01-27T18:08:44.312Z,27.50
2018-01-27T18:11:13.523Z,26.30
2018-01-27T18:13:42.719Z,29.83
2018-01-27T18:16:11.916Z,34.90
2018-01-27T18:18:41.083Z,29.13
2018-01-27T18:21:09.515Z,27.97
2018-01-27T18:23:37.973Z,30.50
2018-01-27T18:26:07.216Z,30.73
2018-01-27T18:28:35.617Z,29.30
2018-01-27T18:31:03.981Z,32.03
2018-01-27T18:33:32.416Z,31.37
2018-01-27T18:36:00.814Z,33.63
2018-01-27T18:38:29.283Z,32.27
2018-01-27T18:40:57.669Z,33.97
2018-01-27T18:43:26.053Z,36.60
2018-01-27T18:45:54.516Z,34.03
2018-01-27T18:48:22.959Z,36.20
2018-01-27T18:50:51.441Z,35.63
2018-01-27T18:53:19.857Z,36.67
2018-01-27T18:55:48.298Z,34.90
2018-01-27T18:58:16.664Z,34.30
2018-01-27T19:00:45.059Z,36.70
2018-01-27T19:03:13.428Z,35.73
2018-01-27T19:05:41.896Z,32.53
2018-01-27T19:08:10.349Z,34.67
2018-01-27T19:10:38.846Z,34.70
2018-01-27T19:13:07.309Z,36.47
2018-01-27T19:15:35.791Z,34.43
2018-01-27T19:18:04.412Z,31.13
